SBPL/PNZ METAR and TAF weather

Enter ICAO airport designator
Station Type Date Time Source
SBPL METAR 2022/08/12 14:00 UTC NOAA

SBPL 121400Z 12003KT CAVOK 31/16 Q1018


Station Type Date Time Source
SBPL Decoded METAR 2022/08/12 14:00 UTC NOAA

Petrolina , Brazil (SBPL) 09-21S 040-33W
Aug 12, 2022 - 10:00 AM EDT / 2022.08.12 1400 UTC
Wind: from the ESE (120 degrees) at 3 MPH (3 KT):0
Visibility: greater than 7 mile(s):0
Temperature: 87 F (31 C)
Dew Point: 60 F (16 C)
Relative Humidity: 40%
Pressure (altimeter): 30.06 in. Hg (1018 hPa)
ob: SBPL 121400Z 12003KT CAVOK 31/16 Q1018
cycle: 14

Station Type Date Time Source
SBPL TAF 2022/08/12 18:10 UTC NOAA

TAF SBPL 121500Z 1218/1318 10005KT CAVOK TX35/1218Z TN17/1309Z
RMK PHD

Example: see airport list